Time;durP1;ratioP1;P1;durP2;ratioP2;P2;SDS_P1;SDS_P2;PMS_P1;PMS_P2;Temp;Humidity;BMP_temperature;BMP_pressure;BME280_temperature;BME280_humidity;BME280_pressure;Samples;Min_cycle;Max_cycle;Signal;HPM_P1;HPM_P2
2023/05/26 00:02:39;;;;;;;8.40;6.57;;;24.00;99.90;;;;;;5031541;28;20042;-60
2023/05/26 00:05:09;;;;;;;8.88;6.53;;;24.00;99.90;;;;;;5031161;28;20061;-57
2023/05/26 00:07:40;;;;;;;9.07;6.32;;;24.00;99.90;;;;;;5030860;28;20492;-56
2023/05/26 00:10:09;;;;;;;9.23;6.93;;;24.00;99.90;;;;;;5014153;28;20037;-58
2023/05/26 00:12:36;;;;;;;9.68;6.70;;;24.00;99.90;;;;;;5033039;28;20013;-57
2023/05/26 00:15:03;;;;;;;8.30;6.78;;;24.00;99.90;;;;;;5033048;28;20036;-57
2023/05/26 00:17:28;;;;;;;11.05;7.65;;;23.90;99.90;;;;;;5031104;28;20334;-57
2023/05/26 00:19:54;;;;;;;9.57;6.43;;;24.00;99.90;;;;;;5032580;28;20033;-58
2023/05/26 00:22:20;;;;;;;11.75;7.53;;;23.90;99.90;;;;;;5033285;28;20034;-58
2023/05/26 00:24:46;;;;;;;8.73;6.60;;;24.00;99.90;;;;;;5032972;28;20144;-58
2023/05/26 00:27:13;;;;;;;8.90;6.60;;;23.90;99.90;;;;;;5032931;28;20488;-58
2023/05/26 00:29:39;;;;;;;10.52;7.03;;;23.90;99.90;;;;;;5032829;28;20025;-59
2023/05/26 00:32:05;;;;;;;9.48;7.38;;;23.90;99.90;;;;;;5032953;28;20029;-58
2023/05/26 00:34:33;;;;;;;9.00;7.35;;;23.90;99.90;;;;;;5032844;28;20022;-59
2023/05/26 00:37:00;;;;;;;9.82;7.10;;;23.90;99.90;;;;;;5031838;28;20028;-58
2023/05/26 00:39:29;;;;;;;10.45;7.75;;;23.90;99.90;;;;;;5033055;28;20076;-59
2023/05/26 00:41:56;;;;;;;8.88;7.65;;;23.90;99.90;;;;;;5032640;28;20036;-58
2023/05/26 00:44:22;;;;;;;11.50;7.93;;;23.90;99.90;;;;;;5032799;28;20043;-59
2023/05/26 00:46:48;;;;;;;8.95;6.93;;;23.90;99.90;;;;;;5032748;28;20108;-59
2023/05/26 00:49:14;;;;;;;10.20;7.38;;;23.90;99.90;;;;;;5032836;28;20021;-60
2023/05/26 00:51:43;;;;;;;10.25;7.78;;;23.90;99.90;;;;;;5032818;28;20049;-59
2023/05/26 00:54:09;;;;;;;10.38;7.88;;;23.90;99.90;;;;;;5032841;28;20021;-59
2023/05/26 00:56:36;;;;;;;8.98;7.35;;;23.90;99.90;;;;;;4998795;28;20029;-59
2023/05/26 00:59:03;;;;;;;9.75;7.70;;;23.90;99.90;;;;;;5032641;28;20029;-59
2023/05/26 01:01:30;;;;;;;9.38;7.25;;;23.90;99.90;;;;;;5055962;22;20119;-53
2023/05/26 01:03:57;;;;;;;9.98;7.88;;;23.90;99.90;;;;;;5034695;28;20025;-55
2023/05/26 01:06:24;;;;;;;11.90;8.15;;;23.80;99.90;;;;;;5052462;28;20029;-55
2023/05/26 01:08:50;;;;;;;10.68;7.55;;;23.80;99.90;;;;;;5052526;28;20021;-54
2023/05/26 01:11:28;;;;;;;10.95;8.18;;;23.90;99.90;;;;;;5052481;28;20055;-67
2023/05/26 01:14:01;;;;;;;10.25;7.85;;;23.80;99.90;;;;;;5056062;28;20063;-56
2023/05/26 01:16:33;;;;;;;11.73;8.50;;;23.80;99.90;;;;;;5056309;28;20388;-55
2023/05/26 01:19:13;;;;;;;10.90;8.30;;;23.80;99.90;;;;;;5056054;28;20025;-54
2023/05/26 01:21:42;;;;;;;11.10;8.27;;;23.80;99.90;;;;;;5056122;28;20044;-55
2023/05/26 01:24:20;;;;;;;13.38;8.07;;;23.80;99.90;;;;;;5056176;28;20033;-55
2023/05/26 01:27:01;;;;;;;9.15;7.15;;;23.80;99.90;;;;;;5055991;28;20056;-56
2023/05/26 01:29:29;;;;;;;10.77;8.02;;;23.80;99.90;;;;;;5055832;28;20104;-55
2023/05/26 01:32:08;;;;;;;10.45;8.43;;;23.80;99.90;;;;;;5055817;28;20476;-55
2023/05/26 01:34:34;;;;;;;11.15;7.80;;;23.80;99.90;;;;;;5037852;28;20039;-55
2023/05/26 01:37:00;;;;;;;11.57;8.20;;;23.80;99.90;;;;;;5055609;28;20384;-54
2023/05/26 01:39:26;;;;;;;11.00;8.40;;;23.80;99.90;;;;;;5055538;28;20113;-56
2023/05/26 01:42:26;;;;;;;9.40;7.53;;;23.80;99.90;;;;;;5055649;28;20021;-55
2023/05/26 01:45:01;;;;;;;9.57;7.35;;;23.70;99.90;;;;;;5041189;28;20029;-54
2023/05/26 01:47:30;;;;;;;10.43;8.85;;;23.80;99.90;;;;;;5055538;28;20017;-56
2023/05/26 01:49:58;;;;;;;10.90;8.23;;;23.70;99.90;;;;;;5055630;28;20104;-56
2023/05/26 01:52:24;;;;;;;8.88;7.05;;;23.80;99.90;;;;;;5038011;28;20035;-55
2023/05/26 01:54:57;;;;;;;9.30;7.43;;;23.70;99.90;;;;;;5037809;28;20476;-55
2023/05/26 01:57:25;;;;;;;10.60;7.65;;;23.70;99.90;;;;;;5055481;28;20037;-55
2023/05/26 01:59:53;;;;;;;;;;;23.70;99.90;;;;;;5055843;28;20048;-56
2023/05/26 02:02:19;;;;;;;8.98;6.93;;;23.70;99.90;;;;;;5068034;22;19960;-59
2023/05/26 02:04:44;;;;;;;8.75;7.43;;;23.80;99.90;;;;;;5055387;28;20060;-59
2023/05/26 02:07:10;;;;;;;8.95;6.60;;;23.70;99.90;;;;;;5055264;28;20018;-58
2023/05/26 02:09:36;;;;;;;8.73;7.15;;;23.70;99.90;;;;;;5055098;28;20021;-58
2023/05/26 02:12:03;;;;;;;10.90;7.28;;;23.70;99.90;;;;;;5055186;28;20021;-59
2023/05/26 02:14:29;;;;;;;9.60;7.00;;;23.70;99.90;;;;;;5055237;28;20032;-58
2023/05/26 02:16:54;;;;;;;8.25;6.53;;;23.70;99.90;;;;;;5054866;28;20033;-58
2023/05/26 02:19:20;;;;;;;8.90;6.80;;;23.70;99.90;;;;;;5055223;28;20028;-58
2023/05/26 02:21:46;;;;;;;8.90;7.40;;;23.70;99.90;;;;;;5055117;28;20040;-59
2023/05/26 02:24:12;;;;;;;8.68;6.57;;;23.70;99.90;;;;;;5036635;28;20091;-59
2023/05/26 02:26:37;;;;;;;10.18;6.68;;;23.70;99.90;;;;;;5054875;28;20025;-58
2023/05/26 02:29:03;;;;;;;6.70;5.88;;;23.70;99.90;;;;;;5054659;28;20033;-58
2023/05/26 02:31:29;;;;;;;8.07;6.35;;;23.70;99.90;;;;;;5054676;28;20113;-59
2023/05/26 02:33:55;;;;;;;9.63;7.10;;;23.70;99.90;;;;;;5054731;28;20071;-58
2023/05/26 02:36:20;;;;;;;8.15;6.07;;;23.70;99.90;;;;;;5036817;28;20025;-57
2023/05/26 02:38:46;;;;;;;9.10;6.43;;;23.70;99.90;;;;;;5052253;28;20033;-58
2023/05/26 02:41:12;;;;;;;6.95;5.82;;;23.70;99.90;;;;;;5036163;28;20033;-58
2023/05/26 02:43:39;;;;;;;8.18;6.25;;;23.70;99.90;;;;;;5054115;28;20040;-58
2023/05/26 02:46:05;;;;;;;7.57;5.67;;;23.70;99.90;;;;;;5053991;28;20017;-58
2023/05/26 02:48:31;;;;;;;7.18;5.55;;;23.70;99.90;;;;;;5054100;28;20278;-58
2023/05/26 02:50:59;;;;;;;9.05;6.50;;;23.70;99.90;;;;;;5054030;28;20527;-58
2023/05/26 02:53:25;;;;;;;5.90;4.97;;;23.70;99.90;;;;;;5053829;28;20074;-58
2023/05/26 02:55:51;;;;;;;6.60;5.70;;;23.70;99.90;;;;;;5036003;28;20461;-58
2023/05/26 02:58:16;;;;;;;6.85;5.80;;;23.70;99.90;;;;;;5053746;28;20052;-58
2023/05/26 03:00:42;;;;;;;6.75;5.72;;;23.70;99.90;;;;;;5054138;28;20045;-59
2023/05/26 03:03:08;;;;;;;6.63;5.57;;;23.70;99.90;;;;;;5053859;28;20365;-58
2023/05/26 03:05:34;;;;;;;8.20;5.55;;;23.70;99.90;;;;;;5035926;28;20468;-58
2023/05/26 03:08:00;;;;;;;7.82;6.22;;;23.70;99.90;;;;;;5053360;28;20103;-58
2023/05/26 03:10:26;;;;;;;7.10;5.72;;;23.70;99.90;;;;;;5053686;28;20035;-58
2023/05/26 03:12:52;;;;;;;9.43;5.45;;;23.70;99.90;;;;;;5053490;28;20029;-58
2023/05/26 03:15:17;;;;;;;7.32;5.35;;;23.60;99.90;;;;;;5053445;28;20075;-58
2023/05/26 03:17:43;;;;;;;6.80;5.45;;;23.60;99.90;;;;;;5053528;28;20033;-59
2023/05/26 03:20:09;;;;;;;6.38;5.10;;;23.70;99.90;;;;;;5053673;28;20025;-59
2023/05/26 03:22:35;;;;;;;6.15;5.00;;;23.60;99.90;;;;;;5053449;28;20025;-58
2023/05/26 03:25:01;;;;;;;6.70;5.03;;;23.70;99.90;;;;;;5053535;28;20521;-58
2023/05/26 03:27:27;;;;;;;5.75;4.50;;;23.60;99.90;;;;;;5053521;28;20503;-58
2023/05/26 03:29:52;;;;;;;6.22;4.75;;;23.60;99.90;;;;;;5053662;28;20489;-58
2023/05/26 03:32:18;;;;;;;7.13;5.40;;;23.60;99.90;;;;;;5053154;28;20024;-58
2023/05/26 03:34:44;;;;;;;6.30;4.95;;;23.70;99.90;;;;;;5052628;28;20532;-58
2023/05/26 03:37:15;;;;;;;7.28;5.45;;;23.60;99.90;;;;;;5052708;28;20025;-58
2023/05/26 03:39:41;;;;;;;6.15;4.47;;;23.60;99.90;;;;;;5053088;28;20376;-58
2023/05/26 03:42:08;;;;;;;6.95;5.18;;;23.60;99.90;;;;;;5053007;28;20021;-59
2023/05/26 03:44:34;;;;;;;6.35;4.50;;;23.60;99.90;;;;;;5053294;28;20033;-58
2023/05/26 03:47:00;;;;;;;6.50;4.80;;;23.60;99.90;;;;;;5052757;28;20041;-58
2023/05/26 03:49:26;;;;;;;6.25;4.82;;;23.60;99.90;;;;;;5052979;28;20021;-58
2023/05/26 03:51:52;;;;;;;5.60;4.70;;;23.70;99.90;;;;;;5053148;28;20116;-58
2023/05/26 03:54:17;;;;;;;5.55;4.50;;;23.60;99.90;;;;;;5052799;28;20009;-59
2023/05/26 03:56:43;;;;;;;5.40;4.10;;;23.60;99.90;;;;;;5053152;28;20021;-58
2023/05/26 03:59:09;;;;;;;5.60;4.38;;;23.70;99.90;;;;;;5052878;28;20108;-58
2023/05/26 04:01:36;;;;;;;8.25;4.47;;;23.60;99.90;;;;;;5035273;28;20416;-58
2023/05/26 04:04:02;;;;;;;6.38;4.13;;;23.60;99.90;;;;;;5052485;28;20025;-59
2023/05/26 04:06:28;;;;;;;6.88;4.43;;;23.60;99.90;;;;;;5052879;28;20021;-59
2023/05/26 04:08:54;;;;;;;5.90;4.13;;;23.60;99.90;;;;;;5052605;28;20086;-58
2023/05/26 04:11:22;;;;;;;5.00;3.83;;;23.70;99.90;;;;;;5053188;28;20025;-58
2023/05/26 04:13:47;;;;;;;6.30;4.10;;;23.60;99.90;;;;;;5052746;28;20075;-58
2023/05/26 04:16:13;;;;;;;4.78;3.53;;;23.60;99.90;;;;;;5052609;28;20021;-58
2023/05/26 04:18:40;;;;;;;4.13;3.72;;;23.60;99.90;;;;;;5052579;28;20025;-58
2023/05/26 04:21:07;;;;;;;5.20;4.07;;;23.60;99.90;;;;;;5052598;28;20135;-58
2023/05/26 04:23:33;;;;;;;8.43;5.60;;;23.60;99.90;;;;;;5052556;28;20025;-58
2023/05/26 04:26:00;;;;;;;5.05;4.07;;;23.60;99.90;;;;;;5052461;28;20016;-58
2023/05/26 04:28:26;;;;;;;4.72;3.65;;;23.60;99.90;;;;;;5052697;28;20419;-59
2023/05/26 04:30:52;;;;;;;5.15;3.70;;;23.60;99.90;;;;;;5052497;28;20104;-59
2023/05/26 04:33:20;;;;;;;4.03;3.30;;;23.60;99.90;;;;;;5034630;28;20112;-59
2023/05/26 04:35:46;;;;;;;;;;;23.60;99.90;;;;;;5052922;28;20021;-60
2023/05/26 04:38:12;;;;;;;4.32;3.25;;;23.60;99.90;;;;;;5052361;28;19920;-60
2023/05/26 04:40:39;;;;;;;6.43;3.30;;;23.60;99.90;;;;;;5052316;28;20104;-59
2023/05/26 04:43:05;;;;;;;3.97;2.85;;;23.60;99.90;;;;;;5052479;28;20018;-59
2023/05/26 04:45:33;;;;;;;5.25;3.40;;;23.60;99.90;;;;;;5052410;28;20095;-58
2023/05/26 04:47:59;;;;;;;6.55;3.53;;;23.60;99.90;;;;;;5037874;28;20455;-58
2023/05/26 04:50:25;;;;;;;4.53;3.10;;;23.60;99.90;;;;;;5056474;28;20025;-58
2023/05/26 04:52:51;;;;;;;4.75;3.38;;;23.60;99.90;;;;;;5055993;28;20029;-59
2023/05/26 04:55:17;;;;;;;3.58;3.03;;;23.60;99.90;;;;;;5056369;28;20048;-58
2023/05/26 04:57:43;;;;;;;4.90;3.40;;;23.60;99.90;;;;;;5056113;28;20064;-59
2023/05/26 05:00:13;;;;;;;4.72;3.63;;;23.60;99.90;;;;;;5021911;28;20419;-59
2023/05/26 05:02:39;;;;;;;6.97;3.15;;;23.60;99.90;;;;;;5056029;28;20057;-58
2023/05/26 05:05:07;;;;;;;5.32;3.65;;;23.60;99.90;;;;;;5056238;28;20144;-58
2023/05/26 05:07:33;;;;;;;4.65;3.20;;;23.60;99.90;;;;;;5055854;28;20512;-58
2023/05/26 05:09:59;;;;;;;4.22;2.90;;;23.60;99.90;;;;;;5056030;28;20043;-58
2023/05/26 05:12:25;;;;;;;4.30;3.20;;;23.60;99.90;;;;;;5055957;28;20109;-58
2023/05/26 05:14:51;;;;;;;3.83;3.15;;;23.60;99.90;;;;;;5055829;28;20024;-58
2023/05/26 05:17:18;;;;;;;4.43;3.17;;;23.60;99.90;;;;;;5055599;28;20032;-58
2023/05/26 05:19:43;;;;;;;3.53;2.92;;;23.60;99.90;;;;;;5055719;28;20028;-58
2023/05/26 05:22:11;;;;;;;7.32;3.25;;;23.60;99.90;;;;;;5055889;28;20021;-58
2023/05/26 05:24:37;;;;;;;4.93;3.55;;;23.60;99.90;;;;;;5055551;28;20469;-58
2023/05/26 05:27:03;;;;;;;3.65;3.05;;;23.60;99.90;;;;;;5055560;28;20040;-58
2023/05/26 05:29:29;;;;;;;3.83;2.90;;;23.60;99.90;;;;;;5055646;28;20517;-58
2023/05/26 05:31:54;;;;;;;3.75;3.03;;;23.60;99.90;;;;;;5055528;28;20052;-58
2023/05/26 05:34:20;;;;;;;4.65;3.08;;;23.60;99.90;;;;;;5055652;28;20028;-58
2023/05/26 05:36:46;;;;;;;4.28;2.95;;;23.60;99.90;;;;;;5055382;28;20029;-58
2023/05/26 05:39:12;;;;;;;4.70;3.00;;;23.60;99.90;;;;;;5037568;28;20040;-59
2023/05/26 05:41:37;;;;;;;3.85;3.05;;;23.60;99.90;;;;;;5055372;28;20024;-59
2023/05/26 05:44:03;;;;;;;3.10;2.67;;;23.60;99.90;;;;;;5055181;28;20036;-59
2023/05/26 05:46:29;;;;;;;5.45;2.85;;;23.60;99.90;;;;;;5054945;28;20376;-58
2023/05/26 05:48:55;;;;;;;5.55;2.75;;;23.60;99.90;;;;;;5055251;28;20033;-58
2023/05/26 05:51:20;;;;;;;4.53;2.90;;;23.60;99.90;;;;;;5055092;28;20150;-58
2023/05/26 05:53:46;;;;;;;4.82;3.13;;;23.60;99.90;;;;;;5054920;28;20033;-59
2023/05/26 05:56:12;;;;;;;4.38;3.10;;;23.60;99.90;;;;;;5055272;28;20029;-60
2023/05/26 05:58:38;;;;;;;3.95;3.08;;;23.60;99.90;;;;;;5054429;28;20119;-60
2023/05/26 06:01:04;;;;;;;5.78;3.05;;;23.60;99.90;;;;;;5054423;28;20416;-59
2023/05/26 06:03:30;;;;;;;5.68;3.67;;;23.60;99.90;;;;;;5055124;28;20025;-59
2023/05/26 06:05:55;;;;;;;3.90;2.92;;;23.60;99.90;;;;;;5037093;28;20079;-59
2023/05/26 06:08:21;;;;;;;6.15;3.10;;;23.60;99.90;;;;;;5054736;28;20421;-59
2023/05/26 06:10:47;;;;;;;4.45;3.17;;;23.60;99.90;;;;;;5055091;28;20369;-59
2023/05/26 06:13:13;;;;;;;3.80;2.78;;;23.60;99.90;;;;;;5054598;28;20033;-60
2023/05/26 06:15:38;;;;;;;3.55;3.15;;;23.60;99.90;;;;;;5054755;28;20022;-59
2023/05/26 06:18:04;;;;;;;3.58;2.83;;;23.60;99.90;;;;;;5054476;28;20037;-59
2023/05/26 06:20:30;;;;;;;5.97;3.63;;;23.60;99.90;;;;;;5054336;28;20389;-59
2023/05/26 06:22:56;;;;;;;5.57;3.30;;;23.60;99.90;;;;;;5054195;28;20456;-58
2023/05/26 06:25:22;;;;;;;4.88;3.13;;;23.60;99.90;;;;;;5054450;28;20184;-59
2023/05/26 06:27:47;;;;;;;5.60;3.17;;;23.60;99.90;;;;;;5054367;28;20049;-58
2023/05/26 06:30:13;;;;;;;7.50;3.80;;;23.60;99.90;;;;;;5019766;28;20548;-58
2023/05/26 06:32:39;;;;;;;6.80;3.10;;;23.60;99.90;;;;;;5054541;28;20025;-59
2023/05/26 06:35:06;;;;;;;5.55;3.50;;;23.60;99.90;;;;;;5054287;28;20047;-59
2023/05/26 06:37:32;;;;;;;4.22;3.30;;;23.60;99.90;;;;;;5054168;28;20102;-58
2023/05/26 06:39:57;;;;;;;3.75;2.60;;;23.60;99.90;;;;;;5054103;28;20041;-58
2023/05/26 06:42:23;;;;;;;7.97;3.45;;;23.60;99.90;;;;;;5053934;28;20063;-60
2023/05/26 06:44:49;;;;;;;4.50;3.08;;;23.60;99.90;;;;;;5054261;28;20067;-59
2023/05/26 06:47:15;;;;;;;5.43;3.35;;;23.60;99.90;;;;;;5035948;28;20067;-59
2023/05/26 06:49:41;;;;;;;5.70;3.63;;;23.60;99.90;;;;;;5053994;28;20025;-59
2023/05/26 06:52:07;;;;;;;3.35;2.38;;;23.60;99.90;;;;;;5053969;28;20424;-59
2023/05/26 06:54:33;;;;;;;6.43;3.17;;;23.60;99.90;;;;;;5053743;28;20052;-58
2023/05/26 06:57:00;;;;;;;4.15;3.40;;;23.60;99.90;;;;;;5053947;28;20033;-58
2023/05/26 06:59:26;;;;;;;5.93;3.25;;;23.70;99.90;;;;;;5036237;28;20025;-58
2023/05/26 07:01:52;;;;;;;5.15;3.17;;;23.60;99.90;;;;;;5053513;28;20059;-60
2023/05/26 07:04:18;;;;;;;4.70;3.60;;;23.70;99.90;;;;;;5053905;28;20085;-59
2023/05/26 07:06:43;;;;;;;6.18;3.65;;;23.70;99.90;;;;;;5053693;28;20032;-58
2023/05/26 07:09:10;;;;;;;5.15;3.30;;;23.70;99.90;;;;;;5053496;28;20109;-58
2023/05/26 07:11:36;;;;;;;5.82;3.38;;;23.70;99.90;;;;;;5034928;28;20036;-58
2023/05/26 07:14:02;;;;;;;6.38;3.40;;;23.70;99.90;;;;;;5052906;28;20465;-58
2023/05/26 07:16:27;;;;;;;4.63;3.17;;;23.70;99.90;;;;;;5052808;28;20159;-59
2023/05/26 07:18:53;;;;;;;7.07;4.18;;;23.70;99.90;;;;;;5052982;28;20032;-60
2023/05/26 07:21:21;;;;;;;5.10;3.45;;;23.70;99.90;;;;;;5052854;28;20017;-60
2023/05/26 07:23:48;;;;;;;6.70;3.42;;;23.70;99.90;;;;;;5053035;28;20032;-58
2023/05/26 07:26:13;;;;;;;8.27;4.60;;;23.70;99.90;;;;;;5053207;28;20028;-57
2023/05/26 07:28:41;;;;;;;7.88;4.50;;;23.70;99.90;;;;;;5053986;28;20017;-56
2023/05/26 07:31:07;;;;;;;7.60;4.05;;;23.70;99.90;;;;;;5034738;28;20044;-61
2023/05/26 07:33:32;;;;;;;6.88;4.25;;;23.70;99.90;;;;;;5053247;28;20061;-61
2023/05/26 07:35:58;;;;;;;9.32;4.05;;;23.70;99.90;;;;;;5052321;28;20051;-62
2023/05/26 07:38:24;;;;;;;16.65;9.27;;;23.70;99.90;;;;;;5035018;28;20067;-52
2023/05/26 07:40:51;;;;;;;10.30;7.20;;;23.70;99.90;;;;;;5052252;28;20025;-52
2023/05/26 07:43:17;;;;;;;10.68;4.93;;;23.70;99.90;;;;;;5052695;28;20019;-52
2023/05/26 07:45:43;;;;;;;8.48;5.00;;;23.70;99.90;;;;;;5052537;28;20029;-52
2023/05/26 07:48:09;;;;;;;7.20;5.60;;;23.70;99.90;;;;;;5053178;28;20049;-52
2023/05/26 07:50:34;;;;;;;6.95;4.40;;;23.70;99.90;;;;;;5035042;28;20017;-53
2023/05/26 07:53:00;;;;;;;8.80;5.68;;;23.60;99.90;;;;;;5052656;28;20021;-53
2023/05/26 07:55:26;;;;;;;10.98;5.43;;;23.60;99.90;;;;;;5052732;28;20028;-52
2023/05/26 07:57:52;;;;;;;10.57;5.47;;;23.50;99.90;;;;;;5053147;28;20047;-53
2023/05/26 08:00:18;;;;;;;7.32;5.00;;;23.50;99.90;;;;;;5052529;28;20032;-52
2023/05/26 08:02:44;;;;;;;9.15;4.38;;;23.50;99.90;;;;;;5052772;28;20040;-55
2023/05/26 08:05:09;;;;;;;4.50;3.22;;;23.40;99.90;;;;;;5049160;28;20029;-57
2023/05/26 08:07:35;;;;;;;5.03;3.20;;;23.50;99.90;;;;;;5050970;28;20059;-57
2023/05/26 08:10:02;;;;;;;5.05;3.30;;;23.40;99.90;;;;;;5051896;28;20029;-57
2023/05/26 08:12:27;;;;;;;4.63;2.88;;;23.40;99.90;;;;;;5049898;28;20057;-60
2023/05/26 08:14:54;;;;;;;8.73;2.88;;;23.50;99.90;;;;;;5051691;28;20110;-59
2023/05/26 08:17:20;;;;;;;7.90;4.00;;;23.50;99.90;;;;;;5060423;28;20064;-59
2023/05/26 08:19:46;;;;;;;4.22;2.90;;;23.50;99.90;;;;;;5056985;28;20075;-60
2023/05/26 08:22:12;;;;;;;6.68;3.80;;;23.50;99.90;;;;;;5055800;28;20415;-59
2023/05/26 08:24:38;;;;;;;7.90;3.60;;;23.50;99.90;;;;;;5058533;28;20071;-60
2023/05/26 08:27:04;;;;;;;5.63;3.42;;;23.60;99.90;;;;;;5065177;28;20342;-60
2023/05/26 08:29:29;;;;;;;5.88;3.67;;;23.60;99.90;;;;;;5040864;28;20083;-60
2023/05/26 08:31:55;;;;;;;6.75;3.90;;;23.60;99.90;;;;;;5065314;28;20380;-60
2023/05/26 08:34:21;;;;;;;7.45;3.80;;;23.60;99.90;;;;;;5058205;28;20029;-60
2023/05/26 08:36:47;;;;;;;5.38;3.83;;;23.60;99.90;;;;;;5058055;28;20052;-59
2023/05/26 08:39:13;;;;;;;6.38;4.22;;;23.70;99.90;;;;;;5058163;28;20044;-59
2023/05/26 08:41:51;;;;;;;5.05;3.75;;;23.70;99.90;;;;;;5056363;28;20383;-60
2023/05/26 08:44:17;;;;;;;7.22;4.22;;;23.70;99.90;;;;;;5066235;28;20028;-61
2023/05/26 08:46:55;;;;;;;7.07;4.22;;;23.70;99.90;;;;;;5061860;28;20043;-60
2023/05/26 08:49:21;;;;;;;;;;;23.70;99.90;;;;;;5060534;28;20021;-60
2023/05/26 08:52:08;;;;;;;7.23;4.70;;;23.70;99.90;;;;;;5040255;28;19912;-60
2023/05/26 08:54:34;;;;;;;9.95;4.82;;;23.80;99.90;;;;;;5058165;28;20021;-61
2023/05/26 08:57:03;;;;;;;6.78;4.63;;;23.80;99.90;;;;;;5058281;28;20419;-61
2023/05/26 08:59:31;;;;;;;6.25;4.75;;;23.80;99.90;;;;;;5058011;28;20050;-61
2023/05/26 09:01:56;;;;;;;8.52;5.05;;;23.80;99.90;;;;;;5057109;28;20037;-61
2023/05/26 09:04:23;;;;;;;16.40;5.68;;;23.80;99.90;;;;;;5056486;28;20559;-61
2023/05/26 09:06:48;;;;;;;9.32;5.80;;;23.80;99.90;;;;;;5058187;28;20556;-61
2023/05/26 09:09:18;;;;;;;8.05;5.45;;;23.80;99.90;;;;;;5057504;28;20135;-60
2023/05/26 09:11:45;;;;;;;10.75;5.80;;;23.80;99.90;;;;;;5058359;28;20512;-60
2023/05/26 09:14:16;;;;;;;9.18;6.00;;;23.90;99.90;;;;;;5056724;28;20013;-62
2023/05/26 09:16:43;;;;;;;13.32;6.22;;;23.90;99.90;;;;;;5057094;28;20143;-62
2023/05/26 09:19:14;;;;;;;12.20;6.00;;;23.90;99.90;;;;;;5057633;28;20064;-62
2023/05/26 09:21:46;;;;;;;8.70;6.05;;;23.90;99.90;;;;;;5057865;28;20372;-64
2023/05/26 09:24:15;;;;;;;10.57;5.68;;;23.90;99.90;;;;;;5039836;28;20472;-63
2023/05/26 09:26:43;;;;;;;8.95;6.25;;;24.00;99.90;;;;;;5037411;28;20387;-65
2023/05/26 09:29:08;;;;;;;;;;;23.90;99.90;;;;;;5058480;28;20476;-64
2023/05/26 09:31:39;;;;;;;11.68;7.70;;;24.00;99.90;;;;;;5057290;28;19923;-64
2023/05/26 09:34:06;;;;;;;51.53;17.42;;;24.00;99.90;;;;;;5057033;28;20102;-62
2023/05/26 09:36:36;;;;;;;47.28;15.55;;;24.00;99.90;;;;;;5054669;28;20017;-62
2023/05/26 09:39:03;;;;;;;38.05;12.90;;;24.00;99.90;;;;;;5054196;28;20052;-63
2023/05/26 09:41:38;;;;;;;18.85;6.47;;;24.00;99.90;;;;;;5054351;28;20033;-64
2023/05/26 09:44:11;;;;;;;22.83;8.73;;;24.00;99.90;;;;;;5036612;28;20119;-59
2023/05/26 09:46:38;;;;;;;15.27;7.20;;;24.00;99.90;;;;;;5054497;28;20104;-62
2023/05/26 09:49:15;;;;;;;18.33;7.93;;;24.00;99.90;;;;;;5053974;28;20051;-56
2023/05/26 09:51:42;;;;;;;16.52;8.30;;;24.00;99.90;;;;;;5057610;28;20359;-57
2023/05/26 09:54:12;;;;;;;;;;;24.00;99.90;;;;;;5037043;28;20481;-57
2023/05/26 09:56:51;;;;;;;13.23;6.68;;;24.10;99.90;;;;;;5054157;28;19944;-57
2023/05/26 09:59:18;;;;;;;12.38;6.38;;;24.10;99.90;;;;;;5052155;28;20110;-58
2023/05/26 10:01:46;;;;;;;14.13;7.00;;;24.10;99.90;;;;;;5052082;28;20120;-57
2023/05/26 10:04:13;;;;;;;15.63;7.55;;;24.10;99.90;;;;;;5054968;28;20485;-57
2023/05/26 10:06:40;;;;;;;;;;;24.10;99.90;;;;;;5046449;28;20059;-58
2023/05/26 10:09:07;;;;;;;23.13;13.90;;;24.10;99.90;;;;;;5054082;28;20027;-57
2023/05/26 10:11:38;;;;;;;20.08;8.35;;;24.20;99.90;;;;;;5053667;28;20033;-58
2023/05/26 10:14:05;;;;;;;25.80;12.65;;;24.10;99.90;;;;;;5053495;28;20473;-58
2023/05/26 10:16:31;;;;;;;26.77;16.73;;;24.10;99.90;;;;;;5053718;28;20100;-57
2023/05/26 10:18:58;;;;;;;24.33;15.05;;;24.20;99.90;;;;;;5053769;28;20396;-58
2023/05/26 10:21:28;;;;;;;26.05;14.85;;;24.20;99.90;;;;;;5053388;28;20032;-57
2023/05/26 10:24:06;;;;;;;21.92;12.90;;;24.20;99.90;;;;;;5053698;28;20027;-57
2023/05/26 10:26:52;;;;;;;23.52;16.02;;;24.20;99.90;;;;;;5053073;28;20476;-57
2023/05/26 10:29:24;;;;;;;23.38;12.55;;;24.20;99.90;;;;;;5050771;28;20044;-57
2023/05/26 10:31:51;;;;;;;22.00;13.50;;;24.20;99.90;;;;;;5056226;28;20032;-57
2023/05/26 10:34:37;;;;;;;28.20;18.42;;;24.20;99.90;;;;;;5053565;28;20045;-58
2023/05/26 10:37:11;;;;;;;21.80;15.70;;;24.30;99.90;;;;;;5053501;28;20098;-57
2023/05/26 10:39:37;;;;;;;21.55;13.98;;;24.30;99.90;;;;;;5053125;28;20029;-56
2023/05/26 10:42:16;;;;;;;23.33;14.90;;;24.30;99.90;;;;;;5053115;28;20051;-57
2023/05/26 10:44:44;;;;;;;23.17;14.60;;;24.30;99.90;;;;;;5051180;28;20017;-57
2023/05/26 10:47:18;;;;;;;20.10;14.13;;;24.30;99.90;;;;;;5055870;28;20144;-57
2023/05/26 10:49:58;;;;;;;25.25;14.68;;;24.30;99.90;;;;;;5046648;28;20033;-57
2023/05/26 10:52:45;;;;;;;23.27;15.15;;;24.30;99.90;;;;;;5058958;28;20029;-57
2023/05/26 10:55:28;;;;;;;23.15;15.75;;;24.30;99.90;;;;;;5050585;28;20017;-56
2023/05/26 10:57:54;;;;;;;13.52;7.45;;;24.30;99.90;;;;;;5052430;28;20084;-56
2023/05/26 11:00:35;;;;;;;10.88;5.03;;;24.40;99.90;;;;;;5053923;28;20024;-56
2023/05/26 11:03:20;;;;;;;12.20;5.15;;;24.40;99.90;;;;;;5032637;28;20056;-56
2023/05/26 11:05:54;;;;;;;12.23;3.50;;;24.40;99.90;;;;;;5055975;28;20021;-57
2023/05/26 11:08:23;;;;;;;8.32;3.50;;;24.40;99.90;;;;;;5059909;28;20376;-56
2023/05/26 11:11:05;;;;;;;10.23;3.55;;;24.40;99.90;;;;;;5052341;28;20021;-56
2023/05/26 11:13:44;;;;;;;10.02;3.20;;;24.40;99.90;;;;;;5049371;28;20063;-56
2023/05/26 11:16:24;;;;;;;9.30;2.70;;;24.40;99.90;;;;;;5052213;28;20039;-55
2023/05/26 11:18:54;;;;;;;8.48;3.33;;;24.40;99.90;;;;;;5033475;28;20029;-55
2023/05/26 11:21:25;;;;;;;10.77;3.13;;;24.40;99.90;;;;;;5052144;28;20029;-55
2023/05/26 11:23:52;;;;;;;9.60;2.90;;;24.50;99.90;;;;;;5034139;28;20025;-56
2023/05/26 11:26:18;;;;;;;12.70;2.97;;;24.50;99.90;;;;;;5034745;28;20075;-55
2023/05/26 11:28:45;;;;;;;13.43;4.07;;;24.50;99.90;;;;;;5052376;28;20111;-54
2023/05/26 11:31:20;;;;;;;14.98;4.18;;;24.50;99.90;;;;;;5061362;28;20095;-54
2023/05/26 11:33:47;;;;;;;9.32;3.28;;;24.50;99.90;;;;;;5054085;28;20112;-55
2023/05/26 11:36:17;;;;;;;13.00;4.27;;;24.50;99.90;;;;;;5051598;28;20112;-56
2023/05/26 11:38:45;;;;;;;12.10;3.20;;;24.50;99.90;;;;;;5052312;28;20128;-55
2023/05/26 11:41:14;;;;;;;8.13;3.50;;;24.50;99.90;;;;;;5021207;28;20096;-54
2023/05/26 11:43:43;;;;;;;4.60;2.75;;;24.50;99.90;;;;;;5061982;28;20096;-55
2023/05/26 11:46:10;;;;;;;8.57;3.53;;;24.50;99.90;;;;;;5052003;28;20086;-55
2023/05/26 11:48:41;;;;;;;12.13;3.50;;;24.50;99.90;;;;;;5050269;28;20025;-55
2023/05/26 11:51:11;;;;;;;23.55;4.40;;;24.50;99.90;;;;;;5049126;28;20100;-56
2023/05/26 11:53:38;;;;;;;31.25;5.68;;;24.50;99.90;;;;;;5051734;28;20036;-55
2023/05/26 11:56:07;;;;;;;26.75;6.57;;;24.50;99.90;;;;;;5051603;28;20029;-56
2023/05/26 11:58:45;;;;;;;19.90;5.18;;;24.50;99.90;;;;;;5032365;28;20136;-56
2023/05/26 12:01:12;;;;;;;22.95;6.03;;;24.50;99.90;;;;;;5048319;28;20041;-56
2023/05/26 12:03:40;;;;;;;12.23;4.10;;;24.50;99.90;;;;;;5051915;28;20033;-56
2023/05/26 12:06:13;;;;;;;14.55;4.43;;;24.50;99.90;;;;;;5051769;28;20048;-55
2023/05/26 12:08:59;;;;;;;9.63;3.97;;;24.50;99.90;;;;;;5052468;28;20166;-56
2023/05/26 12:11:36;;;;;;;18.42;4.13;;;24.60;99.90;;;;;;5033731;28;20021;-56
2023/05/26 12:14:04;;;;;;;17.08;4.85;;;24.60;99.90;;;;;;5051532;28;20182;-56
2023/05/26 12:16:34;;;;;;;10.98;4.38;;;24.50;99.90;;;;;;5048411;28;20035;-54
2023/05/26 12:19:09;;;;;;;9.88;3.85;;;24.60;99.90;;;;;;5059021;28;20101;-53
2023/05/26 12:21:45;;;;;;;10.52;3.97;;;24.50;99.90;;;;;;5053890;28;20015;-55
2023/05/26 12:24:13;;;;;;;9.15;4.00;;;24.60;99.90;;;;;;5061426;28;20373;-54
2023/05/26 12:26:40;;;;;;;11.63;5.07;;;24.60;99.90;;;;;;5052923;28;20013;-54
2023/05/26 12:29:16;;;;;;;8.95;4.97;;;24.50;99.90;;;;;;5051432;28;20515;-56
2023/05/26 12:31:42;;;;;;;14.25;5.00;;;24.50;99.90;;;;;;5051321;28;20021;-56
2023/05/26 12:34:10;;;;;;;11.60;4.28;;;24.60;99.90;;;;;;5051501;28;20017;-56
2023/05/26 12:36:36;;;;;;;13.02;4.35;;;24.60;99.90;;;;;;5033669;28;20488;-56
2023/05/26 12:39:02;;;;;;;14.05;5.38;;;24.60;99.90;;;;;;5062664;28;20033;-57
2023/05/26 12:41:28;;;;;;;11.70;4.82;;;24.60;99.90;;;;;;5051039;28;20028;-56
2023/05/26 12:43:55;;;;;;;12.43;4.40;;;24.60;99.90;;;;;;5051461;28;20029;-56
2023/05/26 12:46:20;;;;;;;7.70;4.10;;;24.60;99.90;;;;;;5051622;28;20021;-56
2023/05/26 12:48:46;;;;;;;10.73;4.20;;;24.70;99.90;;;;;;5051878;28;20079;-57
2023/05/26 12:51:16;;;;;;;11.02;3.80;;;24.70;99.90;;;;;;5032730;28;20552;-57